Amritsar Air Force Station
VIAR : rendu visible

Aérodrome :











RETROUVEZ-NOUS SUR...

 
LOGIN :

S'inscrire | Disclaimer

   EN    FR    IT 

 









Légende :    VFR   VFR Marginal   IFR   IFR Intensif   IFR Très Intensif
Visi : 
Plafond : 
>= 8 km
>= 3000ft
5 à 8 km
1000 à 3000 ft
1500m à 5 km
500 à 1000 ft
800 à 1500m
200 à 500 ft
< 800m
< 200 ft
Symboles :   Orages  Brouillard  Fortes neiges  Fortes précipitations  Vent > 20 kt






- Altitude de l'aérodrome : 756 ft
- Code IATA : ATQ


VIAR - Amritsar Air Force Station

DERNIER METAR :
  • 280600Z 03007KT 1400 R34/1600 BR SCT040 SCT100 20/16 Q1016 NOSIG

METARs EXPIRÉS :
  • 280530Z 04005KT 1400 R34/1500 BR FEW040 SCT100 19/15 Q1016 NOSIG
  • 280500Z 06005KT 1500 R34/1600 BR FEW040 SCT100 20/16 Q1016 NOSIG
  • 280430Z 11008KT 1500 R34/1700 BR FEW040 SCT100 20/16 Q1015 NOSIG
  • 280400Z 12008KT 1400 R34/1700 BR FEW040 SCT100 19/15 Q1015 NOSIG
  • 280300Z 11007KT 1000 R34/1600 BR FEW040 SCT100 17/15 Q1014 NOSIG
  • 280230Z 12007KT 1000 R34/2000 BR FEW040 SCT100 17/15 Q1014 NOSIG

TAF TAF VIAR
Valide du 28 à 06h jusqu'au 29 à 12h UTC


280500Z 2806/2912 11008KT 2200 HZ SCT040 SCT100
BECMG 2815/2817 1500 BR -RA SCT030 BKN100
BECMG 2818/2903 11010G20KT 1000 -TSRA FEW035CB OVC080
BECMG 2906/2908 07008KT 1800 BR HZ SCT040 BKN100



MET'MAP, la Météo Aéronautique d'un coup d'oeil ! - Copyright ORBIFLY Décembre 2007 - Disclaimer

ORBIFLY MET'MAP TEAM :

Programmation & Développement : Alexandra Zaïnal
Sur une idée originale de : Baudouin d'Aumeries
Assistance à la programmation : Marc-Olivier Méhu
Soutien technique & logistique : Manuel Goepfert

Contact : metmap@orbifly.com




SOURCES & CREDITS :

   NOAA       Earth
Advisory